createdAt,value
2018-08-30T00:00:25.487Z,7.33
2018-08-30T00:03:01.702Z,6.13
2018-08-30T00:05:37.959Z,6.43
2018-08-30T00:08:13.708Z,6.33
2018-08-30T00:10:49.294Z,7.00
2018-08-30T00:13:25.467Z,8.20
2018-08-30T00:16:02.024Z,6.87
2018-08-30T00:18:38.211Z,7.00
2018-08-30T00:21:14.578Z,7.03
2018-08-30T00:23:50.307Z,6.20
2018-08-30T00:26:25.737Z,7.03
2018-08-30T00:29:01.415Z,6.87
2018-08-30T00:31:37.865Z,6.93
2018-08-30T00:34:13.546Z,6.57
2018-08-30T00:36:49.639Z,6.67
2018-08-30T00:39:25.564Z,7.27
2018-08-30T00:42:01.185Z,6.77
2018-08-30T00:44:36.900Z,6.77
2018-08-30T00:47:16.827Z,6.60
2018-08-30T00:49:52.856Z,6.70
2018-08-30T00:52:27.877Z,6.90
2018-08-30T00:55:03.955Z,6.80
2018-08-30T00:57:39.571Z,6.83
2018-08-30T01:00:15.466Z,7.20
2018-08-30T01:02:51.371Z,6.53
2018-08-30T01:05:27.135Z,6.97
2018-08-30T01:08:03.300Z,7.90
2018-08-30T01:10:39.321Z,6.60
2018-08-30T01:13:15.021Z,8.00
2018-08-30T01:15:50.281Z,7.30
2018-08-30T01:18:25.142Z,7.50
2018-08-30T01:21:00.647Z,7.53
2018-08-30T01:23:35.815Z,5.70
2018-08-30T01:26:11.313Z,7.30
2018-08-30T01:28:46.902Z,6.40
2018-08-30T01:31:23.313Z,7.07
2018-08-30T01:33:58.755Z,7.83
2018-08-30T01:36:35.095Z,7.40
2018-08-30T01:39:10.690Z,7.33
2018-08-30T01:41:46.233Z,6.33
2018-08-30T01:44:21.855Z,5.60
2018-08-30T01:46:56.881Z,6.10
2018-08-30T01:49:33.200Z,6.00
2018-08-30T01:52:09.651Z,6.50
2018-08-30T01:54:45.412Z,5.97
2018-08-30T01:57:20.748Z,7.70
2018-08-30T01:59:56.859Z,6.37
2018-08-30T02:02:32.870Z,6.97
2018-08-30T02:05:08.796Z,6.53
2018-08-30T02:07:44.084Z,6.70
2018-08-30T02:10:20.045Z,6.03
2018-08-30T02:12:55.013Z,7.63
2018-08-30T02:15:31.676Z,7.20
2018-08-30T02:18:07.031Z,6.37
2018-08-30T02:20:43.556Z,6.47
2018-08-30T02:23:19.766Z,7.43
2018-08-30T02:25:55.111Z,7.10
2018-08-30T02:28:30.422Z,7.20
2018-08-30T02:31:06.550Z,6.83
2018-08-30T02:33:43.255Z,7.50
2018-08-30T02:36:19.577Z,7.23
2018-08-30T02:38:55.025Z,6.80
2018-08-30T02:41:31.306Z,6.67
2018-08-30T02:44:07.245Z,6.83
2018-08-30T02:46:43.209Z,6.97
2018-08-30T02:49:18.798Z,7.10
2018-08-30T02:51:54.141Z,6.80
2018-08-30T02:54:30.220Z,6.17
2018-08-30T02:57:05.933Z,6.20
2018-08-30T02:59:42.040Z,6.20
2018-08-30T03:02:17.477Z,7.40
2018-08-30T03:04:54.052Z,6.00
2018-08-30T03:07:29.501Z,6.63
2018-08-30T03:10:05.171Z,7.10
2018-08-30T03:12:41.369Z,6.87
2018-08-30T03:15:17.192Z,6.60
2018-08-30T03:17:53.234Z,6.37
2018-08-30T03:20:29.428Z,6.73
2018-08-30T03:23:05.245Z,6.87
2018-08-30T03:25:41.647Z,6.90
2018-08-30T03:28:17.645Z,7.00
2018-08-30T03:30:53.721Z,8.00
2018-08-30T03:33:29.307Z,7.73
2018-08-30T03:36:04.768Z,7.60
2018-08-30T03:38:40.974Z,7.40
2018-08-30T03:41:16.503Z,7.30
2018-08-30T03:43:52.568Z,6.90
2018-08-30T03:46:28.963Z,8.00
2018-08-30T03:49:04.556Z,7.40
2018-08-30T03:51:40.422Z,7.43
2018-08-30T03:54:16.451Z,8.03
2018-08-30T03:56:52.612Z,6.97
2018-08-30T03:59:28.907Z,6.13
2018-08-30T04:02:04.513Z,6.50
2018-08-30T04:04:39.828Z,6.00
2018-08-30T04:07:15.754Z,7.20
2018-08-30T04:09:51.812Z,9.17
2018-08-30T04:12:27.199Z,7.80
2018-08-30T04:15:03.666Z,7.20
2018-08-30T04:17:39.245Z,8.30
2018-08-30T04:20:14.656Z,7.10
2018-08-30T04:22:50.772Z,6.97
2018-08-30T04:25:26.162Z,6.97
2018-08-30T04:28:01.057Z,7.03
2018-08-30T04:30:36.845Z,7.50
2018-08-30T04:33:11.918Z,7.50
2018-08-30T04:35:48.023Z,8.20
2018-08-30T04:38:23.795Z,7.30
2018-08-30T04:41:00.042Z,6.67
2018-08-30T04:43:35.724Z,6.70
2018-08-30T04:46:11.600Z,7.30
2018-08-30T04:48:48.686Z,6.87
2018-08-30T04:51:24.339Z,6.97
2018-08-30T04:54:00.827Z,7.77
2018-08-30T04:56:36.982Z,8.37
2018-08-30T04:59:12.955Z,11.40
2018-08-30T05:01:48.871Z,8.63
2018-08-30T05:04:24.919Z,8.47
2018-08-30T05:07:01.066Z,7.90
2018-08-30T05:09:36.909Z,7.93
2018-08-30T05:12:12.780Z,9.07
2018-08-30T05:14:48.974Z,8.80
2018-08-30T05:17:24.892Z,7.20
2018-08-30T05:20:00.004Z,7.13
2018-08-30T05:22:35.350Z,7.17
2018-08-30T05:25:11.226Z,7.97
2018-08-30T05:27:48.736Z,8.00
2018-08-30T05:30:23.951Z,7.43
2018-08-30T05:32:59.511Z,8.30
2018-08-30T05:35:35.147Z,7.80
2018-08-30T05:38:10.871Z,7.87
2018-08-30T05:40:46.610Z,6.73
2018-08-30T05:43:22.209Z,7.20
2018-08-30T05:45:57.600Z,6.57
2018-08-30T05:48:33.612Z,7.87
2018-08-30T05:51:09.611Z,7.60
2018-08-30T05:53:44.889Z,7.60
2018-08-30T05:56:20.251Z,8.23
2018-08-30T05:58:55.541Z,7.70
2018-08-30T06:01:31.391Z,8.13
2018-08-30T06:04:07.593Z,8.20
2018-08-30T06:06:43.473Z,7.67
2018-08-30T06:09:19.075Z,6.93
2018-08-30T06:11:54.429Z,6.90
2018-08-30T06:14:29.822Z,7.23
2018-08-30T06:17:06.329Z,7.50
2018-08-30T06:19:41.842Z,7.70
2018-08-30T06:22:16.942Z,7.60
2018-08-30T06:24:52.440Z,8.07
2018-08-30T06:27:28.080Z,8.10
2018-08-30T06:30:03.745Z,7.50
2018-08-30T06:32:39.184Z,6.70
2018-08-30T06:35:14.841Z,7.20
2018-08-30T06:37:51.076Z,7.00
2018-08-30T06:40:26.880Z,7.70
2018-08-30T06:43:02.502Z,7.70
2018-08-30T06:45:38.563Z,6.90
2018-08-30T06:48:14.116Z,8.20
2018-08-30T06:50:49.187Z,6.73
2018-08-30T06:53:25.360Z,7.70
2018-08-30T06:56:00.381Z,9.47
2018-08-30T06:58:36.306Z,8.20
2018-08-30T07:01:11.694Z,6.70
2018-08-30T07:03:47.153Z,7.00
2018-08-30T07:06:22.674Z,7.70
2018-08-30T07:08:57.766Z,7.00
2018-08-30T07:11:33.106Z,9.00
2018-08-30T07:14:08.943Z,5.97
2018-08-30T07:16:44.358Z,14.90
2018-08-30T07:19:19.199Z,7.83
2018-08-30T07:21:53.759Z,7.47
2018-08-30T07:24:28.892Z,8.70
2018-08-30T07:27:04.687Z,8.10
2018-08-30T07:29:40.254Z,8.40
2018-08-30T07:32:15.177Z,9.10
2018-08-30T07:34:49.996Z,8.70
2018-08-30T07:37:25.348Z,9.30
2018-08-30T07:40:01.926Z,9.20
2018-08-30T07:42:36.736Z,8.87
2018-08-30T07:45:12.274Z,7.90
2018-08-30T07:47:47.786Z,9.00
2018-08-30T07:50:23.051Z,8.70
2018-08-30T07:52:57.902Z,9.93
2018-08-30T07:55:34.194Z,10.80
2018-08-30T07:58:09.945Z,8.67
2018-08-30T08:00:48.455Z,8.47
2018-08-30T08:03:24.488Z,8.10
2018-08-30T08:05:59.750Z,8.20
2018-08-30T08:08:36.097Z,8.27
2018-08-30T08:11:12.893Z,8.63
2018-08-30T08:13:54.058Z,8.00
2018-08-30T08:16:31.103Z,8.47
2018-08-30T08:19:07.055Z,8.20
2018-08-30T08:21:42.237Z,10.53
2018-08-30T08:24:18.042Z,7.80
2018-08-30T08:26:53.128Z,9.77
2018-08-30T08:29:28.940Z,8.90
2018-08-30T08:32:06.257Z,11.57
2018-08-30T08:34:41.978Z,11.63
2018-08-30T08:37:17.100Z,8.00
2018-08-30T08:39:52.361Z,8.30
2018-08-30T08:42:28.203Z,8.07
2018-08-30T08:45:04.316Z,6.83
2018-08-30T08:47:39.706Z,6.50
2018-08-30T08:50:15.214Z,6.43
2018-08-30T08:52:51.346Z,6.27
2018-08-30T08:55:26.848Z,7.50
2018-08-30T08:58:03.325Z,7.53
2018-08-30T09:00:38.582Z,6.27
2018-08-30T09:03:13.185Z,7.40
2018-08-30T09:05:49.423Z,6.93
2018-08-30T09:08:24.974Z,6.33
2018-08-30T09:11:01.314Z,6.47
2018-08-30T09:13:36.461Z,6.90
2018-08-30T09:16:11.306Z,6.00
2018-08-30T09:18:47.564Z,7.70
2018-08-30T09:21:23.152Z,6.20
2018-08-30T09:23:59.114Z,7.40
2018-08-30T09:26:35.010Z,7.10
2018-08-30T09:29:10.470Z,6.73
2018-08-30T09:31:45.573Z,7.10
2018-08-30T09:34:20.973Z,7.13
2018-08-30T09:36:57.067Z,6.97
2018-08-30T09:39:32.096Z,7.80
2018-08-30T09:42:06.797Z,7.70
2018-08-30T09:44:42.712Z,7.63
2018-08-30T09:47:17.852Z,9.10
2018-08-30T09:49:52.860Z,8.47
2018-08-30T09:52:27.579Z,6.93
2018-08-30T09:55:02.617Z,7.43
2018-08-30T09:57:37.457Z,8.07
2018-08-30T10:00:18.525Z,7.50
2018-08-30T10:02:54.022Z,7.93
2018-08-30T10:05:29.693Z,8.70
2018-08-30T10:08:05.438Z,7.80
2018-08-30T10:10:40.931Z,7.30
2018-08-30T10:13:16.205Z,6.80
2018-08-30T10:15:51.300Z,6.80
2018-08-30T10:18:27.027Z,6.20
2018-08-30T10:21:01.931Z,8.10
2018-08-30T10:23:37.569Z,7.23
2018-08-30T10:26:13.207Z,7.23
2018-08-30T10:28:47.990Z,5.53
2018-08-30T10:31:23.532Z,6.57
2018-08-30T10:33:58.978Z,6.43
2018-08-30T10:36:33.786Z,7.23
2018-08-30T10:39:09.720Z,6.50
2018-08-30T10:41:45.770Z,6.07
2018-08-30T10:44:21.100Z,6.77
2018-08-30T10:46:56.610Z,6.90
2018-08-30T10:49:32.773Z,6.43
2018-08-30T10:52:08.539Z,6.70
2018-08-30T10:54:43.588Z,7.07
2018-08-30T10:57:18.524Z,6.67
2018-08-30T10:59:54.860Z,7.70
2018-08-30T11:02:30.999Z,6.23
2018-08-30T11:05:06.279Z,6.50
2018-08-30T11:07:42.599Z,6.27
2018-08-30T11:10:17.834Z,5.77
2018-08-30T11:12:52.794Z,5.17
2018-08-30T11:15:28.712Z,4.80
2018-08-30T11:18:04.362Z,5.10
2018-08-30T11:20:40.234Z,5.27
2018-08-30T11:23:14.894Z,5.47
2018-08-30T11:25:50.542Z,6.10
2018-08-30T11:28:25.590Z,5.90
2018-08-30T11:31:00.882Z,4.80
2018-08-30T11:33:37.090Z,5.90
2018-08-30T11:36:12.689Z,5.07
2018-08-30T11:38:48.272Z,5.73
2018-08-30T11:41:24.104Z,5.57
2018-08-30T11:43:59.208Z,5.70
2018-08-30T11:46:34.557Z,6.10
2018-08-30T11:49:10.158Z,6.50
2018-08-30T11:51:46.405Z,6.90
2018-08-30T11:54:21.898Z,6.10
2018-08-30T11:56:57.430Z,5.80
2018-08-30T11:59:32.494Z,5.40
2018-08-30T12:02:08.988Z,6.20
2018-08-30T12:04:44.226Z,6.30
2018-08-30T12:07:19.450Z,5.40
2018-08-30T12:09:56.844Z,8.13
2018-08-30T12:12:30.286Z,6.90
2018-08-30T12:15:06.161Z,5.80
2018-08-30T12:17:42.444Z,6.80
2018-08-30T12:20:19.411Z,4.87
2018-08-30T12:22:55.506Z,5.03
2018-08-30T12:25:31.504Z,6.20
2018-08-30T12:28:07.307Z,6.00
2018-08-30T12:30:43.108Z,5.50
2018-08-30T12:33:18.380Z,5.50
2018-08-30T12:35:54.758Z,5.70
2018-08-30T12:38:30.303Z,4.90
2018-08-30T12:41:07.112Z,4.90
2018-08-30T12:43:42.631Z,4.47
2018-08-30T12:46:18.409Z,4.27
2018-08-30T12:48:54.544Z,5.10
2018-08-30T12:51:30.454Z,5.13
2018-08-30T12:54:06.997Z,5.33
2018-08-30T12:56:43.224Z,5.07
2018-08-30T12:59:23.099Z,5.10
2018-08-30T13:01:59.399Z,4.57
2018-08-30T13:04:35.318Z,5.60
2018-08-30T13:07:11.867Z,4.60
2018-08-30T13:09:47.429Z,4.53
2018-08-30T13:12:22.937Z,5.50
2018-08-30T13:14:57.985Z,4.90
2018-08-30T13:17:34.169Z,5.00
2018-08-30T13:20:09.573Z,5.83
2018-08-30T13:22:46.051Z,6.53
2018-08-30T13:25:21.726Z,5.30
2018-08-30T13:27:57.842Z,6.57
2018-08-30T13:30:34.837Z,5.87
2018-08-30T13:33:10.728Z,4.67
2018-08-30T13:35:45.799Z,6.27
2018-08-30T13:38:21.462Z,5.70
2018-08-30T13:40:57.089Z,4.97
2018-08-30T13:43:33.203Z,5.77
2018-08-30T13:46:09.269Z,5.50
2018-08-30T13:48:44.933Z,5.20
2018-08-30T13:51:20.936Z,6.40
2018-08-30T13:53:57.036Z,5.53
2018-08-30T13:56:32.810Z,6.40
2018-08-30T13:59:08.090Z,5.77
2018-08-30T14:01:44.329Z,6.57
2018-08-30T14:04:19.710Z,6.80
2018-08-30T14:06:57.090Z,6.10
2018-08-30T14:09:32.009Z,5.73
2018-08-30T14:12:08.226Z,5.17
2018-08-30T14:14:43.429Z,6.47
2018-08-30T14:17:18.655Z,6.40
2018-08-30T14:19:54.396Z,5.83
2018-08-30T14:22:30.264Z,6.07
2018-08-30T14:25:05.605Z,6.60
2018-08-30T14:27:41.415Z,6.53
2018-08-30T14:30:18.311Z,6.00
2018-08-30T14:32:54.317Z,6.67
2018-08-30T14:35:29.405Z,7.00
2018-08-30T14:38:04.500Z,6.60
2018-08-30T14:40:44.167Z,5.57
2018-08-30T14:43:23.507Z,6.33
2018-08-30T14:46:03.544Z,5.93
2018-08-30T14:48:40.825Z,5.90
2018-08-30T14:51:18.491Z,6.20
2018-08-30T14:53:56.495Z,6.00
2018-08-30T14:56:32.997Z,6.70
2018-08-30T14:59:10.211Z,5.30
2018-08-30T15:01:45.300Z,5.63
2018-08-30T15:04:21.612Z,5.77
2018-08-30T15:06:57.233Z,6.47
2018-08-30T15:09:33.011Z,6.03
2018-08-30T15:12:08.988Z,6.13
2018-08-30T15:14:44.655Z,6.20
2018-08-30T15:17:21.222Z,5.73
2018-08-30T15:19:56.616Z,6.00
2018-08-30T15:22:32.619Z,6.13
2018-08-30T15:25:07.546Z,5.70
2018-08-30T15:27:42.375Z,6.17
2018-08-30T15:30:17.629Z,6.10
2018-08-30T15:32:53.193Z,6.07
2018-08-30T15:35:29.266Z,5.90
2018-08-30T15:38:04.613Z,6.70
2018-08-30T15:40:40.326Z,6.20
2018-08-30T15:43:16.217Z,5.87
2018-08-30T15:45:51.504Z,8.80
2018-08-30T15:48:27.261Z,7.03
2018-08-30T15:51:02.502Z,5.40
2018-08-30T15:53:37.676Z,5.90
2018-08-30T15:56:13.575Z,6.27
2018-08-30T15:58:49.868Z,5.70
2018-08-30T16:01:24.889Z,6.73
2018-08-30T16:04:00.383Z,6.30
2018-08-30T16:06:35.590Z,9.03
2018-08-30T16:09:11.817Z,7.03
2018-08-30T16:11:47.086Z,6.53
2018-08-30T16:14:22.035Z,6.90
2018-08-30T16:16:57.228Z,6.90
2018-08-30T16:19:33.274Z,8.80
2018-08-30T16:22:08.408Z,7.67
2018-08-30T16:24:44.237Z,9.03
2018-08-30T16:27:19.984Z,7.50
2018-08-30T16:29:58.946Z,9.33
2018-08-30T16:32:34.762Z,8.50
2018-08-30T16:35:10.425Z,9.00
2018-08-30T16:37:45.543Z,8.33
2018-08-30T16:40:20.774Z,9.10
2018-08-30T16:42:57.230Z,8.47
2018-08-30T16:45:32.490Z,10.10
2018-08-30T16:48:07.519Z,8.90
2018-08-30T16:50:43.203Z,9.30
2018-08-30T16:53:19.873Z,9.40
2018-08-30T16:55:56.824Z,10.43
2018-08-30T16:58:32.352Z,9.80
2018-08-30T17:01:07.512Z,9.30
2018-08-30T17:03:43.055Z,8.63
2018-08-30T17:06:17.999Z,9.67
2018-08-30T17:08:54.706Z,10.63
2018-08-30T17:11:29.551Z,9.80
2018-08-30T17:14:04.550Z,9.60
2018-08-30T17:16:39.451Z,9.57
2018-08-30T17:19:18.827Z,9.65
2018-08-30T17:21:53.977Z,9.30
2018-08-30T17:24:29.022Z,9.17
2018-08-30T17:27:04.008Z,10.10
2018-08-30T17:29:38.736Z,10.00
2018-08-30T17:32:14.368Z,9.23
2018-08-30T17:34:50.464Z,14.47
2018-08-30T17:37:25.462Z,10.47
2018-08-30T17:40:00.916Z,9.30
2018-08-30T17:42:36.452Z,10.43
2018-08-30T17:45:11.730Z,10.53
2018-08-30T17:47:46.956Z,10.20
2018-08-30T17:50:22.855Z,10.70
2018-08-30T17:52:57.772Z,9.93
2018-08-30T17:55:33.209Z,10.57
2018-08-30T17:58:08.607Z,10.80
2018-08-30T18:00:44.288Z,10.60
2018-08-30T18:03:19.221Z,10.27
2018-08-30T18:05:53.983Z,10.10
2018-08-30T18:08:28.734Z,10.00
2018-08-30T18:11:03.537Z,12.23
2018-08-30T18:13:39.264Z,15.03
2018-08-30T18:16:14.447Z,10.97
2018-08-30T18:18:49.899Z,10.80
2018-08-30T18:21:24.779Z,11.50
2018-08-30T18:24:01.621Z,11.13
2018-08-30T18:26:36.878Z,9.80
2018-08-30T18:29:12.072Z,9.30
2018-08-30T18:31:48.068Z,9.20
2018-08-30T18:34:23.668Z,9.30
2018-08-30T18:36:58.555Z,9.83
2018-08-30T18:39:34.032Z,9.70
2018-08-30T18:42:10.075Z,8.80
2018-08-30T18:44:45.298Z,9.50
2018-08-30T18:47:20.353Z,8.43
2018-08-30T18:49:58.148Z,8.60
2018-08-30T18:52:33.924Z,9.30
2018-08-30T18:55:10.004Z,9.23
2018-08-30T18:57:45.073Z,9.93
2018-08-30T19:00:20.463Z,9.63
2018-08-30T19:02:56.216Z,11.13
2018-08-30T19:05:33.108Z,10.57
2018-08-30T19:08:09.687Z,11.20
2018-08-30T19:10:46.519Z,11.10
2018-08-30T19:13:22.927Z,10.90
2018-08-30T19:16:03.965Z,10.60
2018-08-30T19:18:45.160Z,10.40
2018-08-30T19:21:20.835Z,10.20
2018-08-30T19:23:56.921Z,10.20
2018-08-30T19:26:33.580Z,8.93
2018-08-30T19:29:09.385Z,7.90
2018-08-30T19:31:45.474Z,7.53
2018-08-30T19:34:21.430Z,8.33
2018-08-30T19:36:58.856Z,9.30
2018-08-30T19:39:34.682Z,9.23
2018-08-30T19:42:10.823Z,9.30
2018-08-30T19:44:46.465Z,8.90
2018-08-30T19:47:22.286Z,8.73
2018-08-30T19:49:58.783Z,8.27
2018-08-30T19:52:34.677Z,8.20
2018-08-30T19:55:10.438Z,10.00
2018-08-30T19:57:46.185Z,9.20
2018-08-30T20:00:22.454Z,8.43
2018-08-30T20:02:57.295Z,8.20
2018-08-30T20:05:32.197Z,9.13
2018-08-30T20:08:07.689Z,8.27
2018-08-30T20:10:43.415Z,8.80
2018-08-30T20:13:20.261Z,7.90
2018-08-30T20:15:56.768Z,9.17
2018-08-30T20:18:32.219Z,9.53
2018-08-30T20:21:07.476Z,7.50
2018-08-30T20:23:43.129Z,7.23
2018-08-30T20:26:18.600Z,8.10
2018-08-30T20:28:54.530Z,9.10
2018-08-30T20:31:30.090Z,7.77
2018-08-30T20:34:05.716Z,8.60
2018-08-30T20:36:41.710Z,8.40
2018-08-30T20:39:17.264Z,10.00
2018-08-30T20:41:53.349Z,12.00
2018-08-30T20:44:29.262Z,11.77
2018-08-30T20:47:04.214Z,11.00
2018-08-30T20:49:40.296Z,11.83
2018-08-30T20:52:16.091Z,12.97
2018-08-30T20:54:51.131Z,12.30
2018-08-30T20:57:27.669Z,11.10
2018-08-30T21:00:03.730Z,10.80
2018-08-30T21:02:39.351Z,21.80
2018-08-30T21:05:15.416Z,20.87
2018-08-30T21:07:51.316Z,13.53
2018-08-30T21:10:26.392Z,14.17
2018-08-30T21:13:02.300Z,12.70
2018-08-30T21:15:37.240Z,13.03
2018-08-30T21:18:13.520Z,12.73
2018-08-30T21:20:48.215Z,11.47
2018-08-30T21:23:23.889Z,12.30
2018-08-30T21:25:58.895Z,11.03
2018-08-30T21:28:35.128Z,12.60
2018-08-30T21:31:11.619Z,12.30
2018-08-30T21:33:46.994Z,12.37
2018-08-30T21:36:22.090Z,11.93
2018-08-30T21:38:57.599Z,12.60
2018-08-30T21:41:32.703Z,12.40
2018-08-30T21:44:08.680Z,15.87
2018-08-30T21:46:43.942Z,13.10
2018-08-30T21:49:19.675Z,15.37
2018-08-30T21:51:55.720Z,12.80
2018-08-30T21:54:30.926Z,14.37
2018-08-30T21:57:07.224Z,14.20
2018-08-30T21:59:42.567Z,18.73
2018-08-30T22:02:17.848Z,14.50
2018-08-30T22:04:54.043Z,13.77
2018-08-30T22:07:30.021Z,13.67
2018-08-30T22:10:05.713Z,13.77
2018-08-30T22:12:41.446Z,14.70
2018-08-30T22:15:16.971Z,13.00
2018-08-30T22:17:52.619Z,12.20
2018-08-30T22:20:28.222Z,14.10
2018-08-30T22:23:03.757Z,14.20
2018-08-30T22:25:39.439Z,13.23
2018-08-30T22:28:16.462Z,13.80
2018-08-30T22:30:51.806Z,13.00
2018-08-30T22:33:27.515Z,12.33
2018-08-30T22:36:03.380Z,12.60
2018-08-30T22:38:38.434Z,13.33
2018-08-30T22:41:14.883Z,13.43
2018-08-30T22:43:50.822Z,12.60
2018-08-30T22:46:27.248Z,12.97
2018-08-30T22:49:02.746Z,12.70
2018-08-30T22:51:38.761Z,12.83
2018-08-30T22:54:15.583Z,15.00
2018-08-30T22:56:51.919Z,12.50
2018-08-30T22:59:27.329Z,11.90
2018-08-30T23:02:03.559Z,11.50
2018-08-30T23:04:38.648Z,14.13
2018-08-30T23:07:14.277Z,12.50
2018-08-30T23:09:49.823Z,13.47
2018-08-30T23:12:25.369Z,13.20
2018-08-30T23:15:01.790Z,13.50
2018-08-30T23:17:37.703Z,12.60
2018-08-30T23:20:14.671Z,12.37
2018-08-30T23:22:50.588Z,11.13
2018-08-30T23:25:26.116Z,11.20
2018-08-30T23:28:02.123Z,11.47
2018-08-30T23:30:38.678Z,12.27
2018-08-30T23:33:14.382Z,12.07
2018-08-30T23:35:49.721Z,12.80
2018-08-30T23:38:25.241Z,11.50
2018-08-30T23:41:01.409Z,11.17
2018-08-30T23:43:37.918Z,11.30
2018-08-30T23:46:14.383Z,11.57
2018-08-30T23:48:49.984Z,11.97
2018-08-30T23:51:25.848Z,11.90
2018-08-30T23:54:02.705Z,11.53
2018-08-30T23:56:38.437Z,12.93
2018-08-30T23:59:25.201Z,11.03
